TOURFACTS.DK  
Stats and Facts from Tour de France.

Tour de France 2018 starts in 203 days
  Riders   Stages   Teams   Summits   Yearly  


 
Search by year

 2017 - St. 21:  14824 starters.
  5132 different riders.
  635 teams.
  2232 stages.
  454 restdays.
  439589.60 km.
  5653 abandonnees.


Top 3
Christopher Froome86:20:55
Rigoberto Uran86:21:49
Romain Bardet86:23:15
Warren Barguil169 pt.
Primoz Roglic80 pt.
Thomas De Gendt64 pt.
Michael Matthews359 pt.
André Greipel234 pt.
Edvald Boasson Hagen220 pt.
Simon Yates86:27:09
Louis Meintjes86:29:15
Emanuel Buchmann86:54:16
Facts from Tour de France 2017
  |   Stages.  |   Stage winners.  |   Days in yellow  |   Average speed.  |   Route.  |   Teams.  |   All riders.  |   Rookies.  |   Withdrawls.  |  

  |   GC.  |   Polka  |   Green  |   White  |   Summits. (In tour)  |   Summits. (Points)  |   Miscellaneous.  |  

Stage 15 on 16 - 07 - 2017
         Owning:    Christopher Froome      Warren Barguil      Marcel Kittel      Simon Yates  

Pick a stage:  1 2 3 4 5 6 7 8 9 10 11 12 13 14 15 16 17 18 19 20 21
  Laissac-Sévérac l´ÉgliseLe Puy-en-Velay | Dist: 189.50 km.
Cat: 1Montée de Naves d'AubracFRAWarren Barguil
10 points
 
Cat: 3Côte de VieuralsFRAWarren Barguil
2 points
 
Cat: 1Col de Peyra TailladeFRAWarren Barguil
10 points
 
Cat: 4Côte de Saint-VidalNEDBauke Mollema
1 point
 

Average speed for all riders in stage:  37,984 km./hr.
    Place:Name:Team:Time:Km/h:
1 BELSerge PauwelsZAFDimension Data04:35:13  +  -00:06:34=41,313 
NEDBauke MollemaUSATrek – Segafredo04:41:47  +  00:00:00=40,350 
ITADiego UlissiUAEUAE Team Emirates04:42:06  +  00:00:19=40,305 
FRATony GallopinBELLotto Soudal04:42:06  +  00:00:19=40,305 
5 SLOPrimoz RoglicNLDTeam Lotto NL - Jumbo04:42:06  +  00:00:19=40,305 
6 FRAWarren BarguilDEUTeam Sunweb04:42:10  +  00:00:23=40,295 
7 FRANicolas RocheUSABMC Racing Team04:42:47  +  00:01:00=40,207 
8 FRALilian CalmejaneFRADirect Energie04:42:51  +  00:01:04=40,198 
9 BELJan BakelantsFRAAg2r La Mondiale04:42:51  +  00:01:04=40,198 
10 FRAThibaut PinotFRAFDJ04:42:51  +  00:01:04=40,198 
11 BELTiesj BenootBELLotto Soudal04:42:51  +  00:01:04=40,198 
12 ITADamiano CarusoUSABMC Racing Team04:42:51  +  00:01:04=40,198 
13 ESPDaniel NavarroFRACofidis – Solutions Crédits04:42:51  +  00:01:04=40,198 
14 FRAPierre-Luc PérichonFRAFortuneo - Vital Concept04:42:59  +  00:01:12=40,179 
15 FRAAmaël MoinardUSABMC Racing Team04:42:59  +  00:01:12=40,179 
16 AUSMichael MatthewsDEUTeam Sunweb04:46:51  +  00:05:04=39,637 
17 NEDMaurits LammertinkCHETeam Katusha - Alpecin04:46:54  +  00:05:07=39,631 
18 ESPLuis Angel MateFRACofidis – Solutions Crédits04:47:01  +  00:05:14=39,614 
19 FRARomain HardyFRAFortuneo - Vital Concept04:47:01  +  00:05:14=39,614 
20 GERTony MartinCHETeam Katusha - Alpecin04:47:01  +  00:05:14=39,614 
21 ITAAlessandro De MarchiUSABMC Racing Team04:47:27  +  00:05:40=39,555 
22 BELThomas De GendtBELLotto Soudal04:47:58  +  00:06:11=39,484 
23 ETHTsgabu Gebremaryan GrmayBHRBahrain-Merida04:47:58  +  00:06:11=39,484 
24 GERSimon GeschkeDEUTeam Sunweb04:47:58  +  00:06:11=39,484 
25 ENGDaniel MartinBELQuick-Step Floors04:47:58  +  00:06:11=39,484 
26 HRVRobert KiserlovskiCHETeam Katusha - Alpecin04:48:07  +  00:06:20=39,463 
27 ENGSimon YatesAUSOrica - Scott04:48:12  +  00:06:25=39,452 
28 KENChristopher FroomeGBRSky Procycling04:48:12  +  00:06:25=39,452 
29 COLRigoberto UranUSACannondale-Drapac Pro Cycling ..04:48:12  +  00:06:25=39,452 
30 FRAAlexis VuillermozFRAAg2r La Mondiale04:48:12  +  00:06:25=39,452 
31 ITAFabio AruKAZAstana Pro Team04:48:12  +  00:06:25=39,452 
32 NZLGeorge BennettNLDTeam Lotto NL - Jumbo04:48:12  +  00:06:25=39,452 
33 FRARomain BardetFRAAg2r La Mondiale04:48:12  +  00:06:25=39,452 
34 RSALouis MeintjesUAEUAE Team Emirates04:48:12  +  00:06:25=39,452 
35 ESPMikel Landa MeanaGBRSky Procycling04:48:12  +  00:06:25=39,452 
36 ESPAlberto ContadorUSATrek – Segafredo04:48:12  +  00:06:25=39,452 
37 FRARomain SicardFRADirect Energie04:48:19  +  00:06:32=39,436 
38 FRAPierre-Roger LatourFRAAg2r La Mondiale04:50:57  +  00:09:10=39,079 
39 GEREmanuel BuchmannDEUBora–Hansgrohe04:50:57  +  00:09:10=39,079 
40 HRVKristijan DurasekUAEUAE Team Emirates04:50:57  +  00:09:10=39,079 
41 CZERoman KreuzigerAUSOrica - Scott04:50:59  +  00:09:12=39,074 
42 NEDDylan Van BaarleUSACannondale-Drapac Pro Cycling ..04:51:04  +  00:09:17=39,063 
43 SUIMathias FrankFRAAg2r La Mondiale04:51:04  +  00:09:17=39,063 
44 COLCarlos Alberto BetancurESPMovistar Team04:52:06  +  00:10:19=38,925 
45 FRABrice FeilluFRAFortuneo - Vital Concept04:52:06  +  00:10:19=38,925 
46 COLNairo QuintanaESPMovistar Team04:52:06  +  00:10:19=38,925 
47 ESPMikel NieveGBRSky Procycling04:52:06  +  00:10:19=38,925 
48 ITAAlberto BettiolUSACannondale-Drapac Pro Cycling ..04:52:06  +  00:10:19=38,925 
49 FRAPierre RollandUSACannondale-Drapac Pro Cycling ..04:52:06  +  00:10:19=38,925 
50 FRASylvain ChavanelFRADirect Energie04:52:06  +  00:10:19=38,925 
51 KAZAndrey ZeitsKAZAstana Pro Team04:52:06  +  00:10:19=38,925 
52 FRAGuillaume MartinBELWanty – Groupe Gobert04:53:27  +  00:11:40=38,746 
53 COLJarlinson Pantano GomezUSATrek – Segafredo04:53:27  +  00:11:40=38,746 
54 RSADaryl ImpeyAUSOrica - Scott04:53:27  +  00:11:40=38,746 
55 FRACyril GautierFRAAg2r La Mondiale04:53:27  +  00:11:40=38,746 
56 SLOJanez BrajkovicBHRBahrain-Merida04:53:27  +  00:11:40=38,746 
57 LUXBen GastauerFRAAg2r La Mondiale04:53:27  +  00:11:40=38,746 
58 COLSergio Luis HenaoGBRSky Procycling04:53:27  +  00:11:40=38,746 
59 USANathan BrownUSACannondale-Drapac Pro Cycling ..04:53:27  +  00:11:40=38,746 
60 CRCAndrey AmadorESPMovistar Team04:53:27  +  00:11:40=38,746 
61 GERMarcus BurghardtDEUBora–Hansgrohe04:59:47  +  00:18:00=37,927 
62 BELPhilippe GilbertBELQuick-Step Floors04:59:47  +  00:18:00=37,927 
63 NEDKoen De KortUSATrek – Segafredo04:59:47  +  00:18:00=37,927 
64 ITAMarco MarcatoUAEUAE Team Emirates04:59:47  +  00:18:00=37,927 
65 GERJasha SütterlinESPMovistar Team04:59:47  +  00:18:00=37,927 
66 BELJens KeukeleireAUSOrica - Scott04:59:47  +  00:18:00=37,927 
67 JPNYukiya ArashiroBHRBahrain-Merida04:59:47  +  00:18:00=37,927 
68 FRAElie GesbertFRAFortuneo - Vital Concept04:59:47  +  00:18:00=37,927 
69 NEDMarco MinnaardBELWanty – Groupe Gobert04:59:47  +  00:18:00=37,927 
70 AUSDamien HowsonAUSOrica - Scott04:59:47  +  00:18:00=37,927 
71 BELThomas DegandBELWanty – Groupe Gobert04:59:47  +  00:18:00=37,927 
72 ENGBen SwiftUAEUAE Team Emirates04:59:47  +  00:18:00=37,927 
73 SUIStefan KüngUSABMC Racing Team04:59:47  +  00:18:00=37,927 
74 FRAAxel DomontFRAAg2r La Mondiale04:59:47  +  00:18:00=37,927 
75 SUIDanilo WyssUSABMC Racing Team04:59:47  +  00:18:00=37,927 
76 SUIMichael SchärUSABMC Racing Team04:59:47  +  00:18:00=37,927 
77 FRARudy MolardFRAFDJ04:59:47  +  00:18:00=37,927 
78 FRAFlorian VachonFRAFortuneo - Vital Concept04:59:47  +  00:18:00=37,927 
79 FRACyril LemoineFRACofidis – Solutions Crédits04:59:47  +  00:18:00=37,927 
80 BELGreg Van AvermaetUSABMC Racing Team04:59:47  +  00:18:00=37,927 
81 BELOliver NaesenFRAAg2r La Mondiale04:59:47  +  00:18:00=37,927 
82 DENMichael ValgrenKAZAstana Pro Team04:59:47  +  00:18:00=37,927 
83 USAAndrew TalanskyUSACannondale-Drapac Pro Cycling ..04:59:47  +  00:18:00=37,927 
84 KAZDmitriy GruzdevKAZAstana Pro Team04:59:47  +  00:18:00=37,927 
85 KAZAlexey LutsenkoKAZAstana Pro Team04:59:47  +  00:18:00=37,927 
86 ESPImanol ErvitiESPMovistar Team04:59:47  +  00:18:00=37,927 
87 ESPJonathan CastroviejoESPMovistar Team04:59:47  +  00:18:00=37,927 
88 ESPJesus HerradaESPMovistar Team04:59:47  +  00:18:00=37,927 
89 UKRAndriy GrivkoKAZAstana Pro Team04:59:47  +  00:18:00=37,927 
90 FRAAngelo TulikFRADirect Energie04:59:47  +  00:18:00=37,927 
91 NEDLaurens ten DamDEUTeam Sunweb04:59:47  +  00:18:00=37,927 
92 ITADaniele BennatiESPMovistar Team04:59:47  +  00:18:00=37,927 
93 ITAMatteo BonoUAEUAE Team Emirates04:59:47  +  00:18:00=37,927 
94 BELGuillaume Van KeirsbulckBELWanty – Groupe Gobert05:02:26  +  00:20:39=37,595 
95 FRAAdrien PetitFRADirect Energie05:02:26  +  00:20:39=37,595 
96 FRANicolas EdetFRACofidis – Solutions Crédits05:02:26  +  00:20:39=37,595 
97 FRAMaxime BouetFRAFortuneo - Vital Concept05:02:26  +  00:20:39=37,595 
98 ARGEduardo SepulvedaFRAFortuneo - Vital Concept05:02:26  +  00:20:39=37,595 
99 ESPHaimar ZubeldiaUSATrek – Segafredo05:02:26  +  00:20:39=37,595 
100 GERPaul MartensNLDTeam Lotto NL - Jumbo05:02:26  +  00:20:39=37,595 
101 ITAFabio SabatiniBELQuick-Step Floors05:05:23  +  00:23:36=37,232 
102 SUIMichael AlbasiniAUSOrica - Scott05:05:23  +  00:23:36=37,232 
103 NEDRoy CurversDEUTeam Sunweb05:05:23  +  00:23:36=37,232 
104 FRAYoann OffredoBELWanty – Groupe Gobert05:05:23  +  00:23:36=37,232 
105 CZEOndrej CinkBHRBahrain-Merida05:05:23  +  00:23:36=37,232 
106 CZEZdenek StybarBELQuick-Step Floors05:05:23  +  00:23:36=37,232 
107 FRAFlorian SénéchalFRACofidis – Solutions Crédits05:05:23  +  00:23:36=37,232 
108 ITAAndrea PasqualonBELWanty – Groupe Gobert05:05:23  +  00:23:36=37,232 
109 BLRVasil KiryienkaGBRSky Procycling05:05:23  +  00:23:36=37,232 
110 NEDTom LeezerNLDTeam Lotto NL - Jumbo05:05:23  +  00:23:36=37,232 
111 AUSMathew HaymanAUSOrica - Scott05:05:23  +  00:23:36=37,232 
112 COLJohan Esteban ChavesAUSOrica - Scott05:05:23  +  00:23:36=37,232 
113 ESPMarkel IrizarUSATrek – Segafredo05:05:23  +  00:23:36=37,232 
114 AUTMichael GoglUSATrek – Segafredo05:05:23  +  00:23:36=37,232 
115 FRAOlivier Le GacFRAFDJ05:05:23  +  00:23:36=37,232 
116 COLDarwin AtapumaUAEUAE Team Emirates05:05:23  +  00:23:36=37,232 
117 RSAReinardt Janse Van RensburgZAFDimension Data05:05:23  +  00:23:36=37,232 
118 NZLJack BauerBELQuick-Step Floors05:08:19  +  00:26:32=36,878 
119 AUSAdam HansenBELLotto Soudal05:08:19  +  00:26:32=36,878 
120 NZLDion SmithBELWanty – Groupe Gobert05:08:19  +  00:26:32=36,878 
121 GERRick ZabelCHETeam Katusha - Alpecin05:08:19  +  00:26:32=36,878 
122 GERRobert WagnerNLDTeam Lotto NL - Jumbo05:08:19  +  00:26:32=36,878 
123 GERJohn DegenkolbUSATrek – Segafredo05:08:19  +  00:26:32=36,878 
124 FRANacer BouhanniFRACofidis – Solutions Crédits05:08:19  +  00:26:32=36,878 
125 BELJulien VermoteBELQuick-Step Floors05:08:19  +  00:26:32=36,878 
126 GERNils PolittCHETeam Katusha - Alpecin05:08:19  +  00:26:32=36,878 
127 GERMarcel KittelBELQuick-Step Floors05:08:19  +  00:26:32=36,878 
128 GERNikias ArndtDEUTeam Sunweb05:08:19  +  00:26:32=36,878 
129 NZLPaddy BevinUSACannondale-Drapac Pro Cycling ..05:08:19  +  00:26:32=36,878 
130 AUTBernhard EiselZAFDimension Data05:08:19  +  00:26:32=36,878 
131 GERMarcel SiebergBELLotto Soudal05:08:19  +  00:26:32=36,878 
132 BELJürgen RoelandtsBELLotto Soudal05:08:19  +  00:26:32=36,878 
133 AUTMarco HallerCHETeam Katusha - Alpecin05:08:19  +  00:26:32=36,878 
134 NOREdvald Boasson HagenZAFDimension Data05:08:19  +  00:26:32=36,878 
135 NORAlexander KristoffCHETeam Katusha - Alpecin05:08:19  +  00:26:32=36,878 
136 FRAPerrig QuemeneurFRADirect Energie05:08:19  +  00:26:32=36,878 
137 BELFrederik BackaertBELWanty – Groupe Gobert05:08:19  +  00:26:32=36,878 
138 NEDRamon SinkeldamDEUTeam Sunweb05:08:19  +  00:26:32=36,878 
139 DENLars BakBELLotto Soudal05:08:19  +  00:26:32=36,878 
140 NEDTimo RoosenNLDTeam Lotto NL - Jumbo05:08:19  +  00:26:32=36,878 
141 POLPawel PoljanskiDEUBora–Hansgrohe05:08:19  +  00:26:32=36,878 
142 ENGScott ThwaitesZAFDimension Data05:08:19  +  00:26:32=36,878 
143 SUIReto HollensteinCHETeam Katusha - Alpecin05:08:19  +  00:26:32=36,878 
144 GERChristian KneesGBRSky Procycling05:08:19  +  00:26:32=36,878 
145 ITASonny ColbrelliBHRBahrain-Merida05:08:19  +  00:26:32=36,878 
146 ESPJavier Moreno BazánBHRBahrain-Merida05:08:19  +  00:26:32=36,878 
147 WALLuke RoweGBRSky Procycling05:08:19  +  00:26:32=36,878 
148 AUSSimon ClarkeUSACannondale-Drapac Pro Cycling ..05:08:19  +  00:26:32=36,878 
149 SLOGrega BoleBHRBahrain-Merida05:08:19  +  00:26:32=36,878 
150 GERAndré GreipelBELLotto Soudal05:08:19  +  00:26:32=36,878 
151 SLOBorut BozicBHRBahrain-Merida05:08:19  +  00:26:32=36,878 
152 NORVegard Stake LaengenUAEUAE Team Emirates05:08:19  +  00:26:32=36,878 
153 FRAJulien SimonFRACofidis – Solutions Crédits05:08:19  +  00:26:32=36,878 
154 FRAThomas VoecklerFRADirect Energie05:08:19  +  00:26:32=36,878 
155 ITADavide CimolaiFRAFDJ05:08:19  +  00:26:32=36,878 
156 FRALaurent PichonFRAFortuneo - Vital Concept05:08:19  +  00:26:32=36,878 
157 ENGStephen CummingsZAFDimension Data05:08:19  +  00:26:32=36,878 
158 RSAJaco VenterZAFDimension Data05:08:19  +  00:26:32=36,878 
159 AUSJay McCarthyDEUBora–Hansgrohe05:08:19  +  00:26:32=36,878 
160 DDRRüdiger SeligDEUBora–Hansgrohe05:08:19  +  00:26:32=36,878 
161 NEDDylan GroenewegenNLDTeam Lotto NL - Jumbo05:08:19  +  00:26:32=36,878 
162 NEDMike TeunissenDEUTeam Sunweb05:08:19  +  00:26:32=36,878 
163 NEDAlbert TimmerDEUTeam Sunweb05:08:19  +  00:26:32=36,878 
164 PORTiago PintoCHETeam Katusha - Alpecin05:08:19  +  00:26:32=36,878 
165 KAZBakhtiyar KozhatayevKAZAstana Pro Team05:08:19  +  00:26:32=36,878 
166 USATaylor PhinneyUSACannondale-Drapac Pro Cycling ..05:08:19  +  00:26:32=36,878 
167 FRAChristophe LaporteFRACofidis – Solutions Crédits05:08:19  +  00:26:32=36,878 
168 BELDimitri ClaeysFRACofidis – Solutions Crédits05:08:19  +  00:26:32=36,878 
169 POLMichal KwiatkowskiGBRSky Procycling05:08:19  +  00:26:32=36,878 
170 POLMaciej BodnarDEUBora–Hansgrohe05:08:19  +  00:26:32=36,878 
171 FRAYohann GèneFRADirect Energie05:08:19  +  00:26:32=36,878 
172 GERGianluca BrambillaBELQuick-Step Floors05:08:19  +  00:26:32=36,878 
173 FRAThomas BoudatFRADirect Energie05:08:32  +  00:26:45=36,852 
174 BELPieter VanspeybrouckBELWanty – Groupe Gobert05:08:32  +  00:26:45=36,852 
175 ENGDaniel McLayFRAFortuneo - Vital Concept05:20:23  +  00:38:36=35,489 

Withdrawls: 1
 
Rider
Team
Reason
139  BELTim WellensBELLotto SoudalDid not finish

Todays birthdays.

1874  Henri Timmermann
1877  Gustave Guillarme
1886  Guillaume Nyssen
1892  Albert Cartigny
1913  Arsène Mersch
1919  Jean Breuer
1927  Alfred Kain
1930  Edgard Sorgeloos
1937  Frans De Mulder
1960  Jacques Hanegraaf
1986  Andrey Zeits